Buildings.Ponderosa_North_905





Timestamp Voltage L-L Avg Current Avg Real Power Power Factor Frequency
5/20/2019 8:15:00.000 PM 597.900 236.742 237.486 -96.898 -
5/20/2019 8:00:00.000 PM 600.383 230.108 232.102 -96.995 -
5/20/2019 7:45:00.000 PM 610.869 233.087 238.192 -96.599 -
5/20/2019 7:30:00.000 PM 609.470 254.678 258.774 -96.266 -
5/20/2019 7:15:00.000 PM 609.131 259.765 262.807 -95.980 -
5/20/2019 7:00:00.000 PM 609.499 259.529 263.731 -96.320 -
5/20/2019 6:45:00.000 PM 608.557 272.543 277.389 -96.621 -
5/20/2019 6:30:00.000 PM 608.365 267.886 272.916 -96.751 -
5/20/2019 6:15:00.000 PM 608.465 259.483 263.554 -96.418 -
5/20/2019 6:00:00.000 PM 607.427 238.465 240.737 -95.975 -
5/20/2019 5:45:00.000 PM 606.955 244.845 247.768 -96.293 -
5/20/2019 5:30:00.000 PM 606.657 243.532 246.179 -96.214 -
5/20/2019 5:15:00.000 PM 607.675 249.726 252.694 -96.215 -
5/20/2019 5:00:00.000 PM 606.051 403.830 403.477 -95.196 -
5/20/2019 4:45:00.000 PM 606.897 346.990 346.945 -95.142 -
5/20/2019 4:30:00.000 PM 608.107 330.241 334.533 -96.225 -
5/20/2019 4:15:00.000 PM 607.165 375.159 373.281 -94.649 -
5/20/2019 4:00:00.000 PM 608.912 300.243 303.215 -95.754 -
5/20/2019 3:45:00.000 PM 607.910 379.309 378.258 -94.741 -
5/20/2019 3:30:00.000 PM 609.706 318.816 322.844 -95.975 -
5/20/2019 3:15:00.000 PM 609.596 294.683 296.280 -95.295 -
5/20/2019 3:00:00.000 PM 608.516 392.662 392.939 -94.976 -
5/20/2019 2:45:00.000 PM 608.597 360.436 362.597 -95.439 -
5/20/2019 2:30:00.000 PM 609.138 304.457 306.981 -95.585 -
5/20/2019 2:15:00.000 PM 608.114 371.822 370.110 -94.534 -
5/20/2019 2:00:00.000 PM 608.315 304.481 306.118 -95.454 -
5/20/2019 1:45:00.000 PM 607.481 302.960 305.497 -95.867 -
5/20/2019 1:30:00.000 PM 607.423 326.794 326.989 -95.124 -
5/20/2019 1:15:00.000 PM 606.803 338.332 338.876 -95.305 -
5/20/2019 1:00:00.000 PM 607.430 308.314 311.505 -96.047 -
5/20/2019 12:45:00.000 PM 604.041 430.427 425.601 -94.519 -
5/20/2019 12:30:00.000 PM 605.834 331.659 330.338 -94.941 -
5/20/2019 12:15:00.000 PM 606.385 300.923 302.430 -95.726 -
5/20/2019 12:00:00.000 PM 606.373 343.807 344.274 -95.364 -
5/20/2019 11:45:00.000 AM 606.510 292.825 294.455 -95.783 -
5/20/2019 11:30:00.000 AM 604.338 369.023 365.266 -94.577 -
5/20/2019 11:15:00.000 AM 604.398 387.635 384.969 -94.870 -
5/20/2019 11:00:00.000 AM 605.626 310.217 307.625 -94.541 -
5/20/2019 10:45:00.000 AM 606.814 315.881 318.608 -96.008 -
5/20/2019 10:30:00.000 AM 607.192 328.021 327.818 -95.045 -
5/20/2019 10:15:00.000 AM 608.534 291.487 293.973 -95.686 -
5/20/2019 10:00:00.000 AM 604.532 370.547 370.903 -95.635 -
5/20/2019 9:45:00.000 AM 606.147 294.118 294.856 -95.526 -
5/20/2019 9:30:00.000 AM 604.677 388.295 380.664 -93.609 -
5/20/2019 9:15:00.000 AM 607.565 290.330 291.553 -95.466 -
5/20/2019 9:00:00.000 AM 603.490 398.491 389.963 -93.627 -
5/20/2019 8:45:00.000 AM 606.144 336.541 336.890 -95.354 -
5/20/2019 8:30:00.000 AM 605.627 449.709 440.705 -93.420 -
5/20/2019 8:15:00.000 AM 607.992 382.409 381.782 -94.820 -
5/20/2019 8:00:00.000 AM 607.098 514.170 498.627 -92.224 -
5/20/2019 7:45:00.000 AM 595.760 452.677 435.031 -93.137 -
5/20/2019 7:30:00.000 AM 599.165 343.888 336.058 -94.211 -
5/20/2019 7:15:00.000 AM 598.925 260.599 257.652 -95.358 -
5/20/2019 7:00:00.000 AM 601.276 192.500 193.505 -96.569 -
5/20/2019 6:45:00.000 AM 602.116 201.255 202.952 -96.721 -
5/20/2019 6:30:00.000 AM 602.997 198.391 200.594 -96.848 -
5/20/2019 6:15:00.000 AM 602.438 178.435 178.806 -96.071 -
5/20/2019 6:00:00.000 AM 605.081 193.324 194.940 -96.221 -
5/20/2019 5:45:00.000 AM 604.603 183.470 184.329 -95.951 -
5/20/2019 5:30:00.000 AM 605.014 182.946 184.197 -96.095 -
5/20/2019 5:15:00.000 AM 603.832 181.549 182.030 -95.878 -
5/20/2019 5:00:00.000 AM 605.349 156.439 157.910 -96.301 -
5/20/2019 4:45:00.000 AM 605.400 169.956 171.583 -96.359 -
5/20/2019 4:30:00.000 AM 604.823 164.817 166.257 -96.325 -
5/20/2019 4:15:00.000 AM 604.206 162.344 163.704 -96.406 -
5/20/2019 4:00:00.000 AM 604.848 159.537 160.628 -96.162 -
5/20/2019 3:45:00.000 AM 605.192 164.441 166.245 -96.493 -
5/20/2019 3:30:00.000 AM 605.436 163.374 164.653 -96.144 -
5/20/2019 3:15:00.000 AM 605.735 166.664 168.283 -96.287 -
5/20/2019 3:00:00.000 AM 605.801 160.955 162.556 -96.293 -
5/20/2019 2:45:00.000 AM 606.785 160.907 162.785 -96.292 -
5/20/2019 2:30:00.000 AM 606.226 164.148 166.210 -96.497 -
5/20/2019 2:15:00.000 AM 605.116 165.621 167.724 -96.671 -
5/20/2019 2:00:00.000 AM 605.649 163.753 165.711 -96.526 -
5/20/2019 1:45:00.000 AM 608.406 165.275 168.714 -96.921 -
5/20/2019 1:30:00.000 AM 607.775 165.972 169.189 -96.856 -
5/20/2019 1:15:00.000 AM 606.950 171.693 174.852 -96.963 -
5/20/2019 1:00:00.000 AM 606.123 170.666 173.877 -97.142 -
5/20/2019 12:45:00.000 AM 605.742 180.232 183.988 -97.330 -
5/20/2019 12:30:00.000 AM 605.294 176.143 179.851 -97.393 -
5/20/2019 12:15:00.000 AM 604.203 169.178 171.652 -96.964 -
5/20/2019 12:00:00.000 AM 603.093 187.656 191.110 -97.632 -
5/19/2019 11:45:00.000 PM 602.583 183.414 186.776 -97.708 -
5/19/2019 11:30:00.000 PM 605.570 187.089 190.820 -97.265 -
5/19/2019 11:15:00.000 PM 603.648 202.531 206.473 -97.530 -
5/19/2019 11:00:00.000 PM 603.333 210.245 214.799 -97.776 -
5/19/2019 10:45:00.000 PM 602.539 188.029 190.449 -97.076 -
5/19/2019 10:30:00.000 PM 600.806 197.931 200.809 -97.526 -
5/19/2019 10:15:00.000 PM 599.825 200.846 203.936 -97.744 -
5/19/2019 10:00:00.000 PM 600.836 245.180 246.831 -96.757 -
5/19/2019 9:45:00.000 PM 598.759 236.905 235.995 -96.072 -
5/19/2019 9:30:00.000 PM 597.925 272.384 268.227 -95.114 -
5/19/2019 9:15:00.000 PM 598.219 205.759 207.522 -97.352 -
5/19/2019 9:00:00.000 PM 597.145 256.929 255.678 -96.220 -
5/19/2019 8:45:00.000 PM 597.293 225.566 226.880 -97.223 -
5/19/2019 8:30:00.000 PM 597.975 272.170 271.063 -96.161 -
5/19/2019 8:15:00.000 PM 609.903 292.301 293.131 -94.963 -
5/19/2019 8:00:00.000 PM 610.719 201.177 205.527 -96.628 -
5/19/2019 7:45:00.000 PM 609.799 237.591 239.237 -95.367 -
5/19/2019 7:30:00.000 PM 608.452 237.512 239.830 -95.865 -